Terminal Aerodrome Forecast
Issued by NWS Melbourne, FL

Home | Current Version | Previous Version | Text Only | Print | Product List | Glossary On
Versions: 1 2 3 4 5 6 7 8 9 10 11 12 13 14 15 16 17 18 19 20
000
FTUS42 KMLB 301900 AAA
TAFVRB
TAF AMD
KVRB 301937Z 3020/0118 25005KT P6SM VCSH FEW027 BKN035 OVC080
      TEMPO 3020/3021 3SM TSRA BKN025CB
     FM302100 29008KT P6SM VCTS SCT020CB OVC040
      TEMPO 3021/3023 2SM TSRA BKN015CB
     FM010000 28006KT P6SM VCSH SCT020 BKN080
     FM011400 26006KT P6SM SCT010 OVC030=

USA.gov is the U.S. government's official web portal to all federal, state and local government web resources and services.